sensor_id;sensor_type;location;lat;lon;timestamp;temperature;humidity
65074;DHT22;52218;51.224;-2.328;2023-01-01T00:02:02;10.30;99.90
65074;DHT22;52218;51.224;-2.328;2023-01-01T00:05:44;10.30;99.90
65074;DHT22;52218;51.224;-2.328;2023-01-01T00:09:26;10.30;99.90
65074;DHT22;52218;51.224;-2.328;2023-01-01T00:13:26;10.30;99.90
65074;DHT22;52218;51.224;-2.328;2023-01-01T00:17:08;10.10;99.90
65074;DHT22;52218;51.224;-2.328;2023-01-01T00:20:50;10.10;99.90
65074;DHT22;52218;51.224;-2.328;2023-01-01T00:24:32;10.00;99.90
65074;DHT22;52218;51.224;-2.328;2023-01-01T00:28:14;9.90;99.90
65074;DHT22;52218;51.224;-2.328;2023-01-01T00:31:56;9.80;99.90
65074;DHT22;52218;51.224;-2.328;2023-01-01T00:35:38;9.70;99.90
65074;DHT22;52218;51.224;-2.328;2023-01-01T00:39:20;9.70;99.90
65074;DHT22;52218;51.224;-2.328;2023-01-01T00:43:02;9.70;99.90
65074;DHT22;52218;51.224;-2.328;2023-01-01T00:46:44;9.60;99.90
65074;DHT22;52218;51.224;-2.328;2023-01-01T00:50:26;9.60;99.90
65074;DHT22;52218;51.224;-2.328;2023-01-01T00:54:08;9.60;99.90
65074;DHT22;52218;51.224;-2.328;2023-01-01T00:57:50;9.60;99.90
65074;DHT22;52218;51.224;-2.328;2023-01-01T01:01:32;9.60;99.90
65074;DHT22;52218;51.224;-2.328;2023-01-01T01:05:15;9.60;99.90
65074;DHT22;52218;51.224;-2.328;2023-01-01T01:08:57;9.50;99.90
65074;DHT22;52218;51.224;-2.328;2023-01-01T01:12:40;9.50;99.90
65074;DHT22;52218;51.224;-2.328;2023-01-01T01:20:06;9.50;99.90
65074;DHT22;52218;51.224;-2.328;2023-01-01T01:23:49;9.50;99.90
65074;DHT22;52218;51.224;-2.328;2023-01-01T01:27:32;9.40;99.90
65074;DHT22;52218;51.224;-2.328;2023-01-01T01:31:14;9.40;99.90
65074;DHT22;52218;51.224;-2.328;2023-01-01T01:34:56;9.40;99.90
65074;DHT22;52218;51.224;-2.328;2023-01-01T01:38:38;9.30;99.90
65074;DHT22;52218;51.224;-2.328;2023-01-01T01:42:20;9.30;99.90
65074;DHT22;52218;51.224;-2.328;2023-01-01T01:50:08;9.30;99.90
65074;DHT22;52218;51.224;-2.328;2023-01-01T01:53:56;9.20;99.90
65074;DHT22;52218;51.224;-2.328;2023-01-01T01:57:40;9.30;99.90
65074;DHT22;52218;51.224;-2.328;2023-01-01T02:01:23;9.20;99.90
65074;DHT22;52218;51.224;-2.328;2023-01-01T02:05:05;9.30;99.90
65074;DHT22;52218;51.224;-2.328;2023-01-01T02:08:49;9.30;99.90
65074;DHT22;52218;51.224;-2.328;2023-01-01T02:12:31;9.40;99.90
65074;DHT22;52218;51.224;-2.328;2023-01-01T02:24:22;9.50;99.90
65074;DHT22;52218;51.224;-2.328;2023-01-01T02:35:50;9.50;99.90
65074;DHT22;52218;51.224;-2.328;2023-01-01T02:39:36;9.50;99.90
65074;DHT22;52218;51.224;-2.328;2023-01-01T02:43:18;9.40;99.90
65074;DHT22;52218;51.224;-2.328;2023-01-01T02:47:12;9.50;99.90
65074;DHT22;52218;51.224;-2.328;2023-01-01T02:50:56;9.50;99.90
65074;DHT22;52218;51.224;-2.328;2023-01-01T03:06:24;9.50;99.90
65074;DHT22;52218;51.224;-2.328;2023-01-01T03:18:25;9.50;99.90
65074;DHT22;52218;51.224;-2.328;2023-01-01T03:22:16;9.40;99.90
65074;DHT22;52218;51.224;-2.328;2023-01-01T03:26:03;9.40;99.90
65074;DHT22;52218;51.224;-2.328;2023-01-01T03:29:50;9.40;99.90
65074;DHT22;52218;51.224;-2.328;2023-01-01T03:33:33;9.40;99.90
65074;DHT22;52218;51.224;-2.328;2023-01-01T03:37:22;9.40;99.90
65074;DHT22;52218;51.224;-2.328;2023-01-01T03:41:13;9.50;99.90
65074;DHT22;52218;51.224;-2.328;2023-01-01T03:45:16;9.60;99.90
65074;DHT22;52218;51.224;-2.328;2023-01-01T03:49:00;9.60;99.90
65074;DHT22;52218;51.224;-2.328;2023-01-01T04:00:21;9.50;99.90
65074;DHT22;52218;51.224;-2.328;2023-01-01T04:04:05;9.40;99.90
65074;DHT22;52218;51.224;-2.328;2023-01-01T04:07:48;9.30;99.90
65074;DHT22;52218;51.224;-2.328;2023-01-01T04:11:31;9.10;99.90
65074;DHT22;52218;51.224;-2.328;2023-01-01T04:15:32;9.00;99.90
65074;DHT22;52218;51.224;-2.328;2023-01-01T04:19:16;8.90;99.90
65074;DHT22;52218;51.224;-2.328;2023-01-01T04:22:59;8.70;99.90
65074;DHT22;52218;51.224;-2.328;2023-01-01T04:26:42;8.60;99.90
65074;DHT22;52218;51.224;-2.328;2023-01-01T04:30:24;8.60;99.90
65074;DHT22;52218;51.224;-2.328;2023-01-01T04:34:07;8.60;99.90
65074;DHT22;52218;51.224;-2.328;2023-01-01T04:37:49;8.50;99.90
65074;DHT22;52218;51.224;-2.328;2023-01-01T04:41:31;8.50;99.90
65074;DHT22;52218;51.224;-2.328;2023-01-01T04:45:13;8.40;99.90
65074;DHT22;52218;51.224;-2.328;2023-01-01T04:48:56;8.30;99.90
65074;DHT22;52218;51.224;-2.328;2023-01-01T04:52:38;8.20;99.90
65074;DHT22;52218;51.224;-2.328;2023-01-01T04:56:21;8.10;99.90
65074;DHT22;52218;51.224;-2.328;2023-01-01T05:00:03;8.00;99.90
65074;DHT22;52218;51.224;-2.328;2023-01-01T05:03:46;7.90;99.90
65074;DHT22;52218;51.224;-2.328;2023-01-01T05:07:28;7.80;99.90
65074;DHT22;52218;51.224;-2.328;2023-01-01T05:11:18;7.60;99.90
65074;DHT22;52218;51.224;-2.328;2023-01-01T05:15:00;7.50;99.90
65074;DHT22;52218;51.224;-2.328;2023-01-01T05:18:43;7.40;99.90
65074;DHT22;52218;51.224;-2.328;2023-01-01T05:22:25;7.40;99.90
65074;DHT22;52218;51.224;-2.328;2023-01-01T05:29:50;7.40;99.90
65074;DHT22;52218;51.224;-2.328;2023-01-01T05:33:35;7.40;99.90
65074;DHT22;52218;51.224;-2.328;2023-01-01T05:37:17;7.60;99.90
65074;DHT22;52218;51.224;-2.328;2023-01-01T05:40:59;7.80;99.90
65074;DHT22;52218;51.224;-2.328;2023-01-01T05:44:45;8.00;99.90
65074;DHT22;52218;51.224;-2.328;2023-01-01T05:48:28;8.30;99.90
65074;DHT22;52218;51.224;-2.328;2023-01-01T05:52:10;8.50;99.90
65074;DHT22;52218;51.224;-2.328;2023-01-01T05:55:52;8.80;99.90
65074;DHT22;52218;51.224;-2.328;2023-01-01T05:59:35;9.00;99.90
65074;DHT22;52218;51.224;-2.328;2023-01-01T06:03:17;9.20;99.90
65074;DHT22;52218;51.224;-2.328;2023-01-01T06:06:59;9.40;99.90
65074;DHT22;52218;51.224;-2.328;2023-01-01T06:10:41;9.50;99.90
65074;DHT22;52218;51.224;-2.328;2023-01-01T06:14:23;9.60;99.90
65074;DHT22;52218;51.224;-2.328;2023-01-01T06:18:05;9.60;99.90
65074;DHT22;52218;51.224;-2.328;2023-01-01T06:21:47;9.60;99.90
65074;DHT22;52218;51.224;-2.328;2023-01-01T06:25:29;9.50;99.90
65074;DHT22;52218;51.224;-2.328;2023-01-01T06:29:11;9.50;99.90
65074;DHT22;52218;51.224;-2.328;2023-01-01T06:32:53;9.60;99.90
65074;DHT22;52218;51.224;-2.328;2023-01-01T06:36:35;9.50;99.90
65074;DHT22;52218;51.224;-2.328;2023-01-01T06:40:17;9.50;99.90
65074;DHT22;52218;51.224;-2.328;2023-01-01T06:44:00;9.50;99.90
65074;DHT22;52218;51.224;-2.328;2023-01-01T06:47:42;9.50;99.90
65074;DHT22;52218;51.224;-2.328;2023-01-01T06:51:30;9.40;99.90
65074;DHT22;52218;51.224;-2.328;2023-01-01T06:55:12;9.40;99.90
65074;DHT22;52218;51.224;-2.328;2023-01-01T06:58:54;9.30;99.90
65074;DHT22;52218;51.224;-2.328;2023-01-01T07:02:37;9.30;99.90
65074;DHT22;52218;51.224;-2.328;2023-01-01T07:06:19;9.20;99.90
65074;DHT22;52218;51.224;-2.328;2023-01-01T07:10:01;9.20;99.90
65074;DHT22;52218;51.224;-2.328;2023-01-01T07:13:43;9.20;99.90
65074;DHT22;52218;51.224;-2.328;2023-01-01T07:17:25;9.20;99.90
65074;DHT22;52218;51.224;-2.328;2023-01-01T07:21:33;9.10;99.90
65074;DHT22;52218;51.224;-2.328;2023-01-01T07:25:17;9.00;99.90
65074;DHT22;52218;51.224;-2.328;2023-01-01T07:28:59;9.00;99.90
65074;DHT22;52218;51.224;-2.328;2023-01-01T07:32:54;9.00;99.90
65074;DHT22;52218;51.224;-2.328;2023-01-01T07:36:36;9.00;99.90
65074;DHT22;52218;51.224;-2.328;2023-01-01T07:40:19;8.90;99.90
65074;DHT22;52218;51.224;-2.328;2023-01-01T07:44:01;8.70;99.90
65074;DHT22;52218;51.224;-2.328;2023-01-01T07:47:44;8.60;99.90
65074;DHT22;52218;51.224;-2.328;2023-01-01T07:51:28;8.40;99.90
65074;DHT22;52218;51.224;-2.328;2023-01-01T07:55:15;8.30;99.90
65074;DHT22;52218;51.224;-2.328;2023-01-01T07:58:57;8.30;99.90
65074;DHT22;52218;51.224;-2.328;2023-01-01T08:02:39;8.20;99.90
65074;DHT22;52218;51.224;-2.328;2023-01-01T08:06:21;8.20;99.90
65074;DHT22;52218;51.224;-2.328;2023-01-01T08:10:04;8.20;99.90
65074;DHT22;52218;51.224;-2.328;2023-01-01T08:13:47;8.30;99.90
65074;DHT22;52218;51.224;-2.328;2023-01-01T08:17:29;8.30;99.90
65074;DHT22;52218;51.224;-2.328;2023-01-01T08:21:11;8.30;99.90
65074;DHT22;52218;51.224;-2.328;2023-01-01T08:24:53;8.30;99.90
65074;DHT22;52218;51.224;-2.328;2023-01-01T08:28:34;8.30;99.90
65074;DHT22;52218;51.224;-2.328;2023-01-01T08:32:17;8.30;99.90
65074;DHT22;52218;51.224;-2.328;2023-01-01T08:35:59;8.30;99.90
65074;DHT22;52218;51.224;-2.328;2023-01-01T08:39:41;8.30;99.90
65074;DHT22;52218;51.224;-2.328;2023-01-01T08:43:23;8.30;99.90
65074;DHT22;52218;51.224;-2.328;2023-01-01T08:47:05;8.30;99.90
65074;DHT22;52218;51.224;-2.328;2023-01-01T08:50:54;8.30;99.90
65074;DHT22;52218;51.224;-2.328;2023-01-01T08:54:36;8.30;99.90
65074;DHT22;52218;51.224;-2.328;2023-01-01T08:58:18;8.30;99.90
65074;DHT22;52218;51.224;-2.328;2023-01-01T09:02:00;8.30;99.90
65074;DHT22;52218;51.224;-2.328;2023-01-01T09:05:42;8.40;99.90
65074;DHT22;52218;51.224;-2.328;2023-01-01T09:09:26;8.50;99.90
65074;DHT22;52218;51.224;-2.328;2023-01-01T09:13:14;8.60;99.90
65074;DHT22;52218;51.224;-2.328;2023-01-01T09:16:56;8.80;99.90
65074;DHT22;52218;51.224;-2.328;2023-01-01T09:20:38;8.90;99.90
65074;DHT22;52218;51.224;-2.328;2023-01-01T09:24:21;9.10;99.90
65074;DHT22;52218;51.224;-2.328;2023-01-01T09:28:05;9.20;99.90
65074;DHT22;52218;51.224;-2.328;2023-01-01T09:31:48;9.30;99.90
65074;DHT22;52218;51.224;-2.328;2023-01-01T09:35:30;9.40;99.90
65074;DHT22;52218;51.224;-2.328;2023-01-01T09:39:15;9.50;99.90
65074;DHT22;52218;51.224;-2.328;2023-01-01T09:47:01;9.70;99.90
65074;DHT22;52218;51.224;-2.328;2023-01-01T09:50:45;9.90;99.90
65074;DHT22;52218;51.224;-2.328;2023-01-01T09:54:30;10.00;99.90
65074;DHT22;52218;51.224;-2.328;2023-01-01T09:58:14;10.00;99.90
65074;DHT22;52218;51.224;-2.328;2023-01-01T10:10:56;10.00;99.90
65074;DHT22;52218;51.224;-2.328;2023-01-01T10:14:33;10.10;99.90
65074;DHT22;52218;51.224;-2.328;2023-01-01T10:18:20;10.30;99.90
65074;DHT22;52218;51.224;-2.328;2023-01-01T10:22:08;10.30;99.90
65074;DHT22;52218;51.224;-2.328;2023-01-01T10:25:53;10.50;99.90
65074;DHT22;52218;51.224;-2.328;2023-01-01T10:29:43;10.60;99.90
65074;DHT22;52218;51.224;-2.328;2023-01-01T10:33:26;10.70;99.90
65074;DHT22;52218;51.224;-2.328;2023-01-01T10:37:09;10.80;99.90
65074;DHT22;52218;51.224;-2.328;2023-01-01T10:40:55;10.90;99.90
65074;DHT22;52218;51.224;-2.328;2023-01-01T10:44:41;11.00;99.90
65074;DHT22;52218;51.224;-2.328;2023-01-01T10:48:26;11.00;99.90
65074;DHT22;52218;51.224;-2.328;2023-01-01T10:52:13;11.10;99.90
65074;DHT22;52218;51.224;-2.328;2023-01-01T10:56:06;11.10;99.90
65074;DHT22;52218;51.224;-2.328;2023-01-01T10:59:48;11.10;99.90
65074;DHT22;52218;51.224;-2.328;2023-01-01T11:03:35;11.10;99.90
65074;DHT22;52218;51.224;-2.328;2023-01-01T11:11:01;11.10;99.90
65074;DHT22;52218;51.224;-2.328;2023-01-01T11:14:49;11.00;99.90
65074;DHT22;52218;51.224;-2.328;2023-01-01T11:18:32;11.00;99.90
65074;DHT22;52218;51.224;-2.328;2023-01-01T11:22:52;11.00;99.90
65074;DHT22;52218;51.224;-2.328;2023-01-01T11:26:34;11.00;99.90
65074;DHT22;52218;51.224;-2.328;2023-01-01T11:34:03;11.10;99.90
65074;DHT22;52218;51.224;-2.328;2023-01-01T11:37:55;11.10;99.90
65074;DHT22;52218;51.224;-2.328;2023-01-01T11:41:43;11.10;99.90
65074;DHT22;52218;51.224;-2.328;2023-01-01T11:45:33;11.10;99.90
65074;DHT22;52218;51.224;-2.328;2023-01-01T11:49:24;11.10;99.90
65074;DHT22;52218;51.224;-2.328;2023-01-01T11:57:11;11.10;99.90
65074;DHT22;52218;51.224;-2.328;2023-01-01T12:00:58;11.10;99.90
65074;DHT22;52218;51.224;-2.328;2023-01-01T12:04:56;11.10;99.90
65074;DHT22;52218;51.224;-2.328;2023-01-01T12:08:53;11.10;99.90
65074;DHT22;52218;51.224;-2.328;2023-01-01T12:13:05;11.20;99.90
65074;DHT22;52218;51.224;-2.328;2023-01-01T12:17:23;11.20;99.90
65074;DHT22;52218;51.224;-2.328;2023-01-01T12:21:14;11.20;99.90
65074;DHT22;52218;51.224;-2.328;2023-01-01T12:24:58;11.30;99.90
65074;DHT22;52218;51.224;-2.328;2023-01-01T13:01:19;11.60;99.90
65074;DHT22;52218;51.224;-2.328;2023-01-01T13:09:25;11.60;99.90
65074;DHT22;52218;51.224;-2.328;2023-01-01T13:13:11;11.60;99.90
65074;DHT22;52218;51.224;-2.328;2023-01-01T13:16:54;11.60;99.90
65074;DHT22;52218;51.224;-2.328;2023-01-01T13:20:40;11.50;99.90
65074;DHT22;52218;51.224;-2.328;2023-01-01T13:24:24;11.60;99.90
65074;DHT22;52218;51.224;-2.328;2023-01-01T13:28:11;11.60;99.90
65074;DHT22;52218;51.224;-2.328;2023-01-01T13:32:02;11.60;99.90
65074;DHT22;52218;51.224;-2.328;2023-01-01T13:35:44;11.60;99.90
65074;DHT22;52218;51.224;-2.328;2023-01-01T13:39:55;11.60;99.90
65074;DHT22;52218;51.224;-2.328;2023-01-01T13:43:38;11.60;99.90
65074;DHT22;52218;51.224;-2.328;2023-01-01T13:47:49;11.60;99.90
65074;DHT22;52218;51.224;-2.328;2023-01-01T14:08:34;11.60;99.90
65074;DHT22;52218;51.224;-2.328;2023-01-01T14:12:18;11.60;99.90
65074;DHT22;52218;51.224;-2.328;2023-01-01T14:16:02;11.60;99.90
65074;DHT22;52218;51.224;-2.328;2023-01-01T14:19:48;11.50;99.90
65074;DHT22;52218;51.224;-2.328;2023-01-01T14:23:35;11.60;99.90
65074;DHT22;52218;51.224;-2.328;2023-01-01T14:27:19;11.60;99.90
65074;DHT22;52218;51.224;-2.328;2023-01-01T14:31:05;11.60;99.90
65074;DHT22;52218;51.224;-2.328;2023-01-01T14:34:59;11.60;99.90
65074;DHT22;52218;51.224;-2.328;2023-01-01T14:38:44;11.60;99.90
65074;DHT22;52218;51.224;-2.328;2023-01-01T14:42:27;11.60;99.90
65074;DHT22;52218;51.224;-2.328;2023-01-01T14:46:14;11.60;99.90
65074;DHT22;52218;51.224;-2.328;2023-01-01T14:50:03;11.50;99.90
65074;DHT22;52218;51.224;-2.328;2023-01-01T14:53:47;11.50;99.90
65074;DHT22;52218;51.224;-2.328;2023-01-01T14:57:32;11.50;99.90
65074;DHT22;52218;51.224;-2.328;2023-01-01T15:01:19;11.50;99.90
65074;DHT22;52218;51.224;-2.328;2023-01-01T15:05:27;11.50;99.90
65074;DHT22;52218;51.224;-2.328;2023-01-01T15:09:15;11.40;99.90
65074;DHT22;52218;51.224;-2.328;2023-01-01T15:12:58;11.40;99.90
65074;DHT22;52218;51.224;-2.328;2023-01-01T15:16:40;11.40;99.90
65074;DHT22;52218;51.224;-2.328;2023-01-01T15:20:22;11.40;99.90
65074;DHT22;52218;51.224;-2.328;2023-01-01T15:27:54;11.30;99.90
65074;DHT22;52218;51.224;-2.328;2023-01-01T15:31:41;11.20;99.90
65074;DHT22;52218;51.224;-2.328;2023-01-01T15:35:33;11.10;99.90
65074;DHT22;52218;51.224;-2.328;2023-01-01T15:39:18;11.00;99.90
65074;DHT22;52218;51.224;-2.328;2023-01-01T15:46:48;10.70;99.90
65074;DHT22;52218;51.224;-2.328;2023-01-01T15:54:29;10.10;99.90
65074;DHT22;52218;51.224;-2.328;2023-01-01T16:02:19;9.40;99.90
65074;DHT22;52218;51.224;-2.328;2023-01-01T16:06:03;9.20;99.90
65074;DHT22;52218;51.224;-2.328;2023-01-01T16:09:47;9.00;99.90
65074;DHT22;52218;51.224;-2.328;2023-01-01T16:13:37;8.90;99.90
65074;DHT22;52218;51.224;-2.328;2023-01-01T16:17:20;8.80;99.90
65074;DHT22;52218;51.224;-2.328;2023-01-01T16:21:03;8.80;99.90
65074;DHT22;52218;51.224;-2.328;2023-01-01T16:24:46;8.70;99.90
65074;DHT22;52218;51.224;-2.328;2023-01-01T16:28:28;8.70;99.90
65074;DHT22;52218;51.224;-2.328;2023-01-01T16:32:16;8.60;99.90
65074;DHT22;52218;51.224;-2.328;2023-01-01T16:35:59;8.60;99.90
65074;DHT22;52218;51.224;-2.328;2023-01-01T16:39:41;8.60;99.90
65074;DHT22;52218;51.224;-2.328;2023-01-01T16:43:23;8.60;99.90
65074;DHT22;52218;51.224;-2.328;2023-01-01T16:47:04;8.50;99.90
65074;DHT22;52218;51.224;-2.328;2023-01-01T16:50:50;8.50;99.90
65074;DHT22;52218;51.224;-2.328;2023-01-01T16:54:32;8.50;99.90
65074;DHT22;52218;51.224;-2.328;2023-01-01T16:58:15;8.50;99.90
65074;DHT22;52218;51.224;-2.328;2023-01-01T17:02:17;8.50;99.90
65074;DHT22;52218;51.224;-2.328;2023-01-01T17:06:07;8.50;99.90
65074;DHT22;52218;51.224;-2.328;2023-01-01T17:09:50;8.50;99.90
65074;DHT22;52218;51.224;-2.328;2023-01-01T17:13:35;8.50;99.90
65074;DHT22;52218;51.224;-2.328;2023-01-01T17:17:17;8.50;99.90
65074;DHT22;52218;51.224;-2.328;2023-01-01T17:21:07;8.40;99.90
65074;DHT22;52218;51.224;-2.328;2023-01-01T17:24:49;8.40;99.90
65074;DHT22;52218;51.224;-2.328;2023-01-01T17:28:31;8.40;99.90
65074;DHT22;52218;51.224;-2.328;2023-01-01T17:32:13;8.40;99.90
65074;DHT22;52218;51.224;-2.328;2023-01-01T17:35:56;8.40;99.90
65074;DHT22;52218;51.224;-2.328;2023-01-01T17:39:38;8.40;99.90
65074;DHT22;52218;51.224;-2.328;2023-01-01T17:43:20;8.40;99.90
65074;DHT22;52218;51.224;-2.328;2023-01-01T17:47:02;8.30;99.90
65074;DHT22;52218;51.224;-2.328;2023-01-01T17:50:44;8.30;99.90
65074;DHT22;52218;51.224;-2.328;2023-01-01T17:54:26;8.30;99.90
65074;DHT22;52218;51.224;-2.328;2023-01-01T17:58:08;8.20;99.90
65074;DHT22;52218;51.224;-2.328;2023-01-01T18:01:50;8.20;99.90
65074;DHT22;52218;51.224;-2.328;2023-01-01T18:05:32;8.20;99.90
65074;DHT22;52218;51.224;-2.328;2023-01-01T18:09:14;8.20;99.90
65074;DHT22;52218;51.224;-2.328;2023-01-01T18:12:57;8.10;99.90
65074;DHT22;52218;51.224;-2.328;2023-01-01T18:16:42;8.10;99.90
65074;DHT22;52218;51.224;-2.328;2023-01-01T18:20:24;8.10;99.90
65074;DHT22;52218;51.224;-2.328;2023-01-01T18:24:11;8.10;99.90
65074;DHT22;52218;51.224;-2.328;2023-01-01T18:27:53;8.10;99.90
65074;DHT22;52218;51.224;-2.328;2023-01-01T18:31:38;8.00;99.90
65074;DHT22;52218;51.224;-2.328;2023-01-01T18:35:20;8.00;99.90
65074;DHT22;52218;51.224;-2.328;2023-01-01T18:43:10;8.00;99.90
65074;DHT22;52218;51.224;-2.328;2023-01-01T18:46:57;8.00;99.90
65074;DHT22;52218;51.224;-2.328;2023-01-01T18:50:40;8.00;99.90
65074;DHT22;52218;51.224;-2.328;2023-01-01T18:54:23;8.00;99.90
65074;DHT22;52218;51.224;-2.328;2023-01-01T18:58:22;8.00;99.90
65074;DHT22;52218;51.224;-2.328;2023-01-01T19:02:36;8.00;99.90
65074;DHT22;52218;51.224;-2.328;2023-01-01T19:06:25;8.00;99.90
65074;DHT22;52218;51.224;-2.328;2023-01-01T19:10:12;8.00;99.90
65074;DHT22;52218;51.224;-2.328;2023-01-01T19:14:01;8.00;99.90
65074;DHT22;52218;51.224;-2.328;2023-01-01T19:17:45;8.00;99.90
65074;DHT22;52218;51.224;-2.328;2023-01-01T19:21:27;7.90;99.90
65074;DHT22;52218;51.224;-2.328;2023-01-01T19:25:41;8.00;99.90
65074;DHT22;52218;51.224;-2.328;2023-01-01T19:29:24;7.90;99.90
65074;DHT22;52218;51.224;-2.328;2023-01-01T19:33:09;7.90;99.90
65074;DHT22;52218;51.224;-2.328;2023-01-01T19:36:51;7.90;99.90
65074;DHT22;52218;51.224;-2.328;2023-01-01T19:40:33;7.90;99.90
65074;DHT22;52218;51.224;-2.328;2023-01-01T19:44:15;7.90;99.90
65074;DHT22;52218;51.224;-2.328;2023-01-01T19:48:05;7.90;99.90
65074;DHT22;52218;51.224;-2.328;2023-01-01T19:51:48;7.90;99.90
65074;DHT22;52218;51.224;-2.328;2023-01-01T19:55:30;7.90;99.90
65074;DHT22;52218;51.224;-2.328;2023-01-01T19:59:12;7.90;99.90
65074;DHT22;52218;51.224;-2.328;2023-01-01T20:02:54;7.90;99.90
65074;DHT22;52218;51.224;-2.328;2023-01-01T20:06:36;7.90;99.90
65074;DHT22;52218;51.224;-2.328;2023-01-01T20:10:18;7.90;99.90
65074;DHT22;52218;51.224;-2.328;2023-01-01T20:14:01;7.90;99.90
65074;DHT22;52218;51.224;-2.328;2023-01-01T20:17:44;7.90;99.90
65074;DHT22;52218;51.224;-2.328;2023-01-01T20:21:26;7.90;99.90
65074;DHT22;52218;51.224;-2.328;2023-01-01T20:25:26;7.90;99.90
65074;DHT22;52218;51.224;-2.328;2023-01-01T20:29:08;8.00;99.90
65074;DHT22;52218;51.224;-2.328;2023-01-01T20:32:59;7.90;99.90
65074;DHT22;52218;51.224;-2.328;2023-01-01T20:36:41;7.90;99.90
65074;DHT22;52218;51.224;-2.328;2023-01-01T20:40:42;8.00;99.90
65074;DHT22;52218;51.224;-2.328;2023-01-01T20:44:24;7.90;99.90
65074;DHT22;52218;51.224;-2.328;2023-01-01T20:48:06;8.00;99.90
65074;DHT22;52218;51.224;-2.328;2023-01-01T20:51:50;7.90;99.90
65074;DHT22;52218;51.224;-2.328;2023-01-01T20:55:32;7.90;99.90
65074;DHT22;52218;51.224;-2.328;2023-01-01T20:59:14;7.90;99.90
65074;DHT22;52218;51.224;-2.328;2023-01-01T21:03:16;7.90;99.90
65074;DHT22;52218;51.224;-2.328;2023-01-01T21:06:58;7.90;99.90
65074;DHT22;52218;51.224;-2.328;2023-01-01T21:10:40;7.90;99.90
65074;DHT22;52218;51.224;-2.328;2023-01-01T21:14:24;7.90;99.90
65074;DHT22;52218;51.224;-2.328;2023-01-01T21:18:09;7.90;99.90
65074;DHT22;52218;51.224;-2.328;2023-01-01T21:21:54;7.90;99.90
65074;DHT22;52218;51.224;-2.328;2023-01-01T21:25:36;7.90;99.90
65074;DHT22;52218;51.224;-2.328;2023-01-01T21:29:32;8.00;99.90
65074;DHT22;52218;51.224;-2.328;2023-01-01T21:33:24;8.00;99.90
65074;DHT22;52218;51.224;-2.328;2023-01-01T21:44:39;8.00;99.90
65074;DHT22;52218;51.224;-2.328;2023-01-01T21:48:32;8.00;99.90
65074;DHT22;52218;51.224;-2.328;2023-01-01T21:52:22;8.00;99.90
65074;DHT22;52218;51.224;-2.328;2023-01-01T21:56:26;7.90;99.90
65074;DHT22;52218;51.224;-2.328;2023-01-01T22:00:18;7.90;99.90
65074;DHT22;52218;51.224;-2.328;2023-01-01T22:07:50;7.80;99.90
65074;DHT22;52218;51.224;-2.328;2023-01-01T22:11:39;7.80;99.90
65074;DHT22;52218;51.224;-2.328;2023-01-01T22:15:39;7.80;99.90
65074;DHT22;52218;51.224;-2.328;2023-01-01T22:19:23;7.80;99.90
65074;DHT22;52218;51.224;-2.328;2023-01-01T22:30:58;7.70;99.90
65074;DHT22;52218;51.224;-2.328;2023-01-01T22:34:40;7.70;99.90
65074;DHT22;52218;51.224;-2.328;2023-01-01T22:38:31;7.70;99.90
65074;DHT22;52218;51.224;-2.328;2023-01-01T22:42:18;7.60;99.90
65074;DHT22;52218;51.224;-2.328;2023-01-01T22:46:21;7.60;99.90
65074;DHT22;52218;51.224;-2.328;2023-01-01T22:50:10;7.60;99.90
65074;DHT22;52218;51.224;-2.328;2023-01-01T22:53:56;7.50;99.90
65074;DHT22;52218;51.224;-2.328;2023-01-01T22:57:38;7.50;99.90
65074;DHT22;52218;51.224;-2.328;2023-01-01T23:01:20;7.40;99.90
65074;DHT22;52218;51.224;-2.328;2023-01-01T23:05:03;7.40;99.90
65074;DHT22;52218;51.224;-2.328;2023-01-01T23:08:45;7.40;99.90
65074;DHT22;52218;51.224;-2.328;2023-01-01T23:12:27;7.40;99.90
65074;DHT22;52218;51.224;-2.328;2023-01-01T23:16:09;7.30;99.90
65074;DHT22;52218;51.224;-2.328;2023-01-01T23:19:51;7.30;99.90
65074;DHT22;52218;51.224;-2.328;2023-01-01T23:23:34;7.30;99.90
65074;DHT22;52218;51.224;-2.328;2023-01-01T23:27:17;7.20;99.90
65074;DHT22;52218;51.224;-2.328;2023-01-01T23:31:01;7.20;99.90
65074;DHT22;52218;51.224;-2.328;2023-01-01T23:34:45;7.20;99.90
65074;DHT22;52218;51.224;-2.328;2023-01-01T23:38:28;7.10;99.90
65074;DHT22;52218;51.224;-2.328;2023-01-01T23:42:10;7.10;99.90
65074;DHT22;52218;51.224;-2.328;2023-01-01T23:45:53;7.10;99.90
65074;DHT22;52218;51.224;-2.328;2023-01-01T23:49:35;7.20;99.90
65074;DHT22;52218;51.224;-2.328;2023-01-01T23:53:17;7.20;99.90
65074;DHT22;52218;51.224;-2.328;2023-01-01T23:56:59;7.20;99.90
